createdAt,value
2018-12-29T00:09:57.823Z,3.03
2018-12-29T00:20:03.325Z,2.73
2018-12-29T00:30:10.541Z,3.07
2018-12-29T00:40:16.193Z,2.90
2018-12-29T00:50:21.730Z,2.60
2018-12-29T01:00:27.523Z,2.60
2018-12-29T01:10:32.908Z,2.80
2018-12-29T01:20:41.623Z,2.77
2018-12-29T01:30:47.625Z,2.60
2018-12-29T01:40:53.257Z,2.60
2018-12-29T01:50:58.871Z,2.60
2018-12-29T02:01:04.368Z,2.60
2018-12-29T02:11:11.883Z,2.47
2018-12-29T02:21:17.456Z,2.40
2018-12-29T02:31:23.410Z,2.50
2018-12-29T02:41:29.031Z,2.30
2018-12-29T02:51:34.512Z,2.30
2018-12-29T03:01:40.001Z,2.30
2018-12-29T03:11:45.516Z,2.30
2018-12-29T03:21:50.995Z,2.60
2018-12-29T03:31:57.140Z,2.33
2018-12-29T03:42:02.541Z,2.17
2018-12-29T03:52:08.155Z,2.30
2018-12-29T04:02:13.914Z,2.20
2018-12-29T04:12:32.266Z,2.10
2018-12-29T04:22:37.796Z,2.27
2018-12-29T04:32:43.217Z,2.20
2018-12-29T04:42:48.598Z,2.43
2018-12-29T04:52:54.000Z,2.03
2018-12-29T05:02:59.486Z,2.20
2018-12-29T05:13:05.062Z,1.97
2018-12-29T05:23:11.237Z,2.10
2018-12-29T05:33:16.698Z,2.20
2018-12-29T05:43:22.227Z,2.10
2018-12-29T05:53:29.516Z,1.90
2018-12-29T06:03:35.491Z,1.97
2018-12-29T06:13:41.857Z,2.30
2018-12-29T06:23:47.332Z,2.40
2018-12-29T06:33:54.711Z,3.67
2018-12-29T06:44:01.616Z,5.30
2018-12-29T06:54:07.032Z,9.70
2018-12-29T07:04:14.505Z,7.17
2018-12-29T07:14:21.890Z,5.67
2018-12-29T07:24:27.353Z,4.67
2018-12-29T07:34:33.025Z,4.23
2018-12-29T07:44:38.631Z,4.40
2018-12-29T07:54:44.904Z,3.83
2018-12-29T08:04:50.315Z,4.10
2018-12-29T08:14:55.845Z,3.70
2018-12-29T08:25:01.703Z,3.80
2018-12-29T08:35:07.457Z,4.17
2018-12-29T08:45:13.425Z,3.83
2018-12-29T08:55:18.996Z,3.70
2018-12-29T09:05:24.517Z,3.60
2018-12-29T09:15:31.354Z,3.47
2018-12-29T09:25:37.011Z,3.50
2018-12-29T09:35:42.351Z,5.30
2018-12-29T09:45:47.881Z,5.30
2018-12-29T09:55:53.498Z,4.80
2018-12-29T10:06:01.324Z,4.23
2018-12-29T10:16:08.552Z,4.57
2018-12-29T10:26:14.151Z,4.40
2018-12-29T10:36:21.911Z,3.93
2018-12-29T10:46:28.793Z,4.27
2018-12-29T10:56:35.008Z,4.27
2018-12-29T11:06:41.612Z,4.70
2018-12-29T11:16:50.064Z,4.23
2018-12-29T11:26:56.715Z,4.70
2018-12-29T11:37:02.065Z,4.70
2018-12-29T11:47:07.802Z,4.43
2018-12-29T11:57:13.579Z,4.53
2018-12-29T12:07:19.274Z,4.50
2018-12-29T12:17:28.027Z,4.00
2018-12-29T12:27:35.134Z,4.10
2018-12-29T12:37:40.631Z,4.20
2018-12-29T12:47:48.393Z,4.20
2018-12-29T12:57:54.496Z,4.10
2018-12-29T13:08:00.136Z,3.93
2018-12-29T13:18:12.769Z,4.00
2018-12-29T13:28:14.696Z,3.80
2018-12-29T13:38:20.335Z,3.77
2018-12-29T13:48:28.948Z,3.97
2018-12-29T13:58:35.394Z,3.37
2018-12-29T14:08:43.449Z,4.17
2018-12-29T14:18:48.969Z,3.70
2018-12-29T14:28:56.083Z,4.20
2018-12-29T14:39:01.472Z,3.83
2018-12-29T14:49:07.889Z,4.37
2018-12-29T14:59:13.433Z,4.30
2018-12-29T15:09:20.456Z,4.00
2018-12-29T15:19:26.680Z,3.80
2018-12-29T15:29:32.188Z,4.33
2018-12-29T15:39:38.354Z,4.30
2018-12-29T15:49:43.756Z,4.00
2018-12-29T15:59:50.996Z,4.07
2018-12-29T16:09:56.407Z,3.80
2018-12-29T16:20:02.917Z,4.07
2018-12-29T16:30:08.940Z,3.80
2018-12-29T16:40:15.160Z,4.10
2018-12-29T16:50:21.167Z,4.73
2018-12-29T17:00:26.834Z,3.80
2018-12-29T17:10:33.112Z,3.80
2018-12-29T17:20:39.180Z,3.17
2018-12-29T17:30:45.296Z,3.53
2018-12-29T17:40:53.470Z,3.70
2018-12-29T17:50:59.552Z,3.33
2018-12-29T18:01:05.808Z,3.20
2018-12-29T18:11:11.713Z,3.33
2018-12-29T18:21:18.184Z,3.60
2018-12-29T18:31:24.662Z,3.03
2018-12-29T18:41:30.095Z,3.17
2018-12-29T18:51:35.604Z,3.13
2018-12-29T19:01:41.335Z,3.40
2018-12-29T19:11:47.290Z,3.03
2018-12-29T19:21:53.299Z,3.13
2018-12-29T19:31:58.965Z,3.17
2018-12-29T19:42:04.651Z,4.10
2018-12-29T19:52:10.993Z,4.50
2018-12-29T20:02:16.609Z,4.83
2018-12-29T20:12:22.577Z,4.63
2018-12-29T20:22:28.142Z,3.67
2018-12-29T20:32:36.725Z,3.30
2018-12-29T20:42:42.465Z,3.80
2018-12-29T20:52:48.917Z,3.30
2018-12-29T21:02:54.465Z,3.97
2018-12-29T21:13:01.955Z,4.60
2018-12-29T21:23:07.429Z,4.83
2018-12-29T21:33:13.543Z,4.93
2018-12-29T21:43:19.035Z,4.30
2018-12-29T21:53:24.749Z,4.87
2018-12-29T22:03:32.728Z,4.27
2018-12-29T22:13:38.140Z,4.40
2018-12-29T22:23:43.543Z,4.33
2018-12-29T22:33:49.398Z,3.57
2018-12-29T22:43:57.336Z,3.43
2018-12-29T22:54:02.821Z,3.67
2018-12-29T23:04:08.973Z,3.30
2018-12-29T23:14:14.424Z,3.50
2018-12-29T23:24:19.876Z,3.13
2018-12-29T23:34:25.275Z,3.40
2018-12-29T23:44:30.949Z,2.83
2018-12-29T23:54:36.388Z,3.00
